createdAt,value
2023-07-03T00:00:44.360Z,195.75
2023-07-03T00:01:44.415Z,190.36
2023-07-03T00:02:44.467Z,194.86
2023-07-03T00:03:44.452Z,195.96
2023-07-03T00:04:44.581Z,195.48
2023-07-03T00:05:44.499Z,193.48
2023-07-03T00:06:44.474Z,196.79
2023-07-03T00:07:44.509Z,194.71
2023-07-03T00:08:44.515Z,192.69
2023-07-03T00:09:44.566Z,194.61
2023-07-03T00:10:44.594Z,197.96
2023-07-03T00:11:44.615Z,195.84
2023-07-03T00:12:44.647Z,194.46
2023-07-03T00:13:44.723Z,193.73
2023-07-03T00:14:44.704Z,195.58
2023-07-03T00:15:44.677Z,195.53
2023-07-03T00:16:44.772Z,196.15
2023-07-03T00:17:44.826Z,192.93
2023-07-03T00:18:44.774Z,198.35
2023-07-03T00:19:44.804Z,197.93
2023-07-03T00:20:44.809Z,196.56
2023-07-03T00:21:45.071Z,196.49
2023-07-03T00:22:44.886Z,197.44
2023-07-03T00:23:44.897Z,190.85
2023-07-03T00:24:44.911Z,196.35
2023-07-03T00:25:44.949Z,194.19
2023-07-03T00:26:44.993Z,194.95
2023-07-03T00:27:45.023Z,196.75
2023-07-03T00:28:45.031Z,196.46
2023-07-03T00:29:45.087Z,195.03
2023-07-03T00:30:45.081Z,196.07
2023-07-03T00:31:45.172Z,193.84
2023-07-03T00:32:45.209Z,193.97
2023-07-03T00:33:45.199Z,191.37
2023-07-03T00:34:45.254Z,194.49
2023-07-03T00:35:45.287Z,191.15
2023-07-03T00:36:45.269Z,196.86
2023-07-03T00:37:45.291Z,196.34
2023-07-03T00:38:45.351Z,190.97
2023-07-03T00:39:45.367Z,198.90
2023-07-03T00:40:45.398Z,199.27
2023-07-03T00:41:45.426Z,197.85
2023-07-03T00:42:45.465Z,193.55
2023-07-03T00:43:45.483Z,193.96
2023-07-03T00:44:45.510Z,194.65
2023-07-03T00:45:45.562Z,193.55
2023-07-03T00:46:45.665Z,194.10
2023-07-03T00:47:45.629Z,192.82
2023-07-03T00:48:45.626Z,191.26
2023-07-03T00:49:45.653Z,192.93
2023-07-03T00:50:45.652Z,192.79
2023-07-03T00:51:45.722Z,194.03
2023-07-03T00:52:45.701Z,194.40
2023-07-03T00:53:45.707Z,188.97
2023-07-03T00:54:45.726Z,190.67
2023-07-03T00:55:45.774Z,189.69
2023-07-03T00:56:45.788Z,188.86
2023-07-03T00:57:45.795Z,189.85
2023-07-03T00:58:45.786Z,193.18
2023-07-03T00:59:45.820Z,188.28
2023-07-03T01:00:45.861Z,189.19
2023-07-03T01:01:45.956Z,191.54
2023-07-03T01:02:45.905Z,190.13
2023-07-03T01:03:45.932Z,190.57
2023-07-03T01:04:45.982Z,190.21
2023-07-03T01:05:46.025Z,184.86
2023-07-03T01:06:46.026Z,191.85
2023-07-03T01:07:46.033Z,190.28
2023-07-03T01:08:46.067Z,187.61
2023-07-03T01:09:46.082Z,194.10
2023-07-03T01:10:46.137Z,190.64
2023-07-03T01:11:46.143Z,191.06
2023-07-03T01:12:46.190Z,191.25
2023-07-03T01:13:46.202Z,191.99
2023-07-03T01:14:46.280Z,192.11
2023-07-03T01:15:46.300Z,190.34
2023-07-03T01:16:46.292Z,191.53
2023-07-03T01:17:46.372Z,185.29
2023-07-03T01:18:46.365Z,188.18
2023-07-03T01:19:46.402Z,187.10
2023-07-03T01:20:46.418Z,190.22
2023-07-03T01:21:46.468Z,190.01
2023-07-03T01:22:46.483Z,192.47
2023-07-03T01:23:46.531Z,191.79
2023-07-03T01:24:46.595Z,191.32
2023-07-03T01:25:46.599Z,188.37
2023-07-03T01:26:46.671Z,189.36
2023-07-03T01:27:46.721Z,190.24
2023-07-03T01:28:46.734Z,184.48
2023-07-03T01:29:46.739Z,187.34
2023-07-03T01:30:46.764Z,185.75
2023-07-03T01:31:46.857Z,190.64
2023-07-03T01:32:46.870Z,188.61
2023-07-03T01:33:46.867Z,190.29
2023-07-03T01:34:46.994Z,187.86
2023-07-03T01:35:46.930Z,188.67
2023-07-03T01:36:46.993Z,187.93
2023-07-03T01:37:46.988Z,189.87
2023-07-03T01:38:47.061Z,188.51
2023-07-03T01:39:47.048Z,187.55
2023-07-03T01:40:47.116Z,185.02
2023-07-03T01:41:47.125Z,185.94
2023-07-03T01:42:47.183Z,183.85
2023-07-03T01:43:47.212Z,188.06
2023-07-03T01:44:47.246Z,187.80
2023-07-03T01:45:47.351Z,186.29
2023-07-03T01:46:47.329Z,188.94
2023-07-03T01:47:47.470Z,190.77
2023-07-03T01:48:47.435Z,189.00
2023-07-03T01:49:47.435Z,188.06
2023-07-03T01:50:47.453Z,187.69
2023-07-03T01:51:47.558Z,187.22
2023-07-03T01:52:47.542Z,186.96
2023-07-03T01:53:47.591Z,188.37
2023-07-03T01:54:47.636Z,189.44
2023-07-03T01:55:47.777Z,187.35
2023-07-03T01:56:47.709Z,188.20
2023-07-03T01:57:47.762Z,183.86
2023-07-03T01:58:47.807Z,186.57
2023-07-03T01:59:47.873Z,185.05
2023-07-03T02:00:47.934Z,189.69
2023-07-03T02:01:48.015Z,187.87
2023-07-03T02:02:48.180Z,186.12
2023-07-03T02:03:48.004Z,186.50
2023-07-03T02:04:48.092Z,187.71
2023-07-03T02:05:48.419Z,187.60
2023-07-03T02:06:48.124Z,185.08
2023-07-03T02:07:48.191Z,183.38
2023-07-03T02:08:48.215Z,186.33
2023-07-03T02:09:48.258Z,190.41
2023-07-03T02:10:48.307Z,184.67
2023-07-03T02:11:48.356Z,185.10
2023-07-03T02:12:48.385Z,187.46
2023-07-03T02:13:48.437Z,185.93
2023-07-03T02:14:48.460Z,187.28
2023-07-03T02:15:48.580Z,188.13
2023-07-03T02:16:48.689Z,186.53
2023-07-03T02:17:48.614Z,188.56
2023-07-03T02:18:48.619Z,183.33
2023-07-03T02:19:48.676Z,187.84
2023-07-03T02:20:48.731Z,185.51
2023-07-03T02:21:48.773Z,185.79
2023-07-03T02:22:48.790Z,189.02
2023-07-03T02:23:48.883Z,186.73
2023-07-03T02:24:48.866Z,183.94
2023-07-03T02:25:49.130Z,188.33
2023-07-03T02:26:49.292Z,189.21
2023-07-03T02:27:48.980Z,185.16
2023-07-03T02:28:49.029Z,186.81
2023-07-03T02:29:49.087Z,189.72
2023-07-03T02:30:49.121Z,187.95
2023-07-03T02:31:49.344Z,187.50
2023-07-03T02:32:49.241Z,186.11
2023-07-03T02:33:49.208Z,186.62
2023-07-03T02:34:49.251Z,186.25
2023-07-03T02:35:49.796Z,189.26
2023-07-03T02:36:49.355Z,184.53
2023-07-03T02:37:49.407Z,187.28
2023-07-03T02:38:49.431Z,187.24
2023-07-03T02:39:49.525Z,184.77
2023-07-03T02:40:49.548Z,187.49
2023-07-03T02:41:49.570Z,187.49
2023-07-03T02:42:49.670Z,184.16
2023-07-03T02:43:49.682Z,184.47
2023-07-03T02:44:49.722Z,182.95
2023-07-03T02:45:50.021Z,187.36
2023-07-03T02:46:49.864Z,185.16
2023-07-03T02:47:49.908Z,186.69
2023-07-03T02:48:49.912Z,182.61
2023-07-03T02:49:50.012Z,182.37
2023-07-03T02:50:49.997Z,180.18
2023-07-03T02:51:50.091Z,179.52
2023-07-03T02:52:50.133Z,182.15
2023-07-03T02:53:50.178Z,181.31
2023-07-03T02:54:50.202Z,184.52
2023-07-03T02:55:50.634Z,183.25
2023-07-03T02:56:50.327Z,182.99
2023-07-03T02:57:50.336Z,182.85
2023-07-03T02:58:50.416Z,183.77
2023-07-03T02:59:50.430Z,181.48
2023-07-03T03:00:50.512Z,183.90
2023-07-03T03:01:50.538Z,182.97
2023-07-03T03:02:50.672Z,183.82
2023-07-03T03:03:50.653Z,184.97
2023-07-03T03:04:50.703Z,183.80
2023-07-03T03:05:50.968Z,184.39
2023-07-03T03:06:50.758Z,181.22
2023-07-03T03:07:50.806Z,179.89
2023-07-03T03:08:50.882Z,184.73
2023-07-03T03:09:50.884Z,181.99
2023-07-03T03:10:50.923Z,182.02
2023-07-03T03:11:51.002Z,181.99
2023-07-03T03:12:51.001Z,181.26
2023-07-03T03:13:51.064Z,183.52
2023-07-03T03:14:51.085Z,182.70
2023-07-03T03:15:51.408Z,183.83
2023-07-03T03:16:51.211Z,180.75
2023-07-03T03:17:51.227Z,183.41
2023-07-03T03:18:51.236Z,180.95
2023-07-03T03:19:51.294Z,182.01
2023-07-03T03:20:51.368Z,180.52
2023-07-03T03:21:51.367Z,178.57
2023-07-03T03:22:51.476Z,181.89
2023-07-03T03:23:51.502Z,178.88
2023-07-03T03:24:51.533Z,182.64
2023-07-03T03:25:51.826Z,181.56
2023-07-03T03:26:51.672Z,178.67
2023-07-03T03:27:51.689Z,179.12
2023-07-03T03:28:51.750Z,179.03
2023-07-03T03:29:51.921Z,178.08
2023-07-03T03:30:51.911Z,174.18
2023-07-03T03:31:51.903Z,178.52
2023-07-03T03:32:51.962Z,175.29
2023-07-03T03:33:52.000Z,177.50
2023-07-03T03:34:52.089Z,176.86
2023-07-03T03:35:52.460Z,177.28
2023-07-03T03:36:52.157Z,176.45
2023-07-03T03:37:52.190Z,176.81
2023-07-03T03:38:52.232Z,176.14
2023-07-03T03:39:52.300Z,179.65
2023-07-03T03:40:52.413Z,177.68
2023-07-03T03:41:52.439Z,175.78
2023-07-03T03:42:52.489Z,175.68
2023-07-03T03:43:52.559Z,180.11
2023-07-03T03:44:52.639Z,177.63
2023-07-03T03:45:52.789Z,178.98
2023-07-03T03:46:52.697Z,178.36
2023-07-03T03:47:52.911Z,177.98
2023-07-03T03:48:52.899Z,179.40
2023-07-03T03:49:52.881Z,179.63
2023-07-03T03:50:52.931Z,180.87
2023-07-03T03:51:53.005Z,178.14
2023-07-03T03:52:53.048Z,180.09
2023-07-03T03:53:53.040Z,180.19
2023-07-03T03:54:53.112Z,178.23
2023-07-03T03:55:53.392Z,179.48
2023-07-03T03:56:53.230Z,180.60
2023-07-03T03:57:53.278Z,179.26
2023-07-03T03:58:53.327Z,180.13
2023-07-03T03:59:53.368Z,180.73
2023-07-03T04:00:53.491Z,181.08
2023-07-03T04:01:53.613Z,182.43
2023-07-03T04:02:53.621Z,179.82
2023-07-03T04:03:53.663Z,182.17
2023-07-03T04:04:53.710Z,181.56
2023-07-03T04:05:54.097Z,182.16
2023-07-03T04:06:53.783Z,182.54
2023-07-03T04:07:53.797Z,183.12
2023-07-03T04:08:53.881Z,181.73
2023-07-03T04:09:53.887Z,182.62
2023-07-03T04:10:53.933Z,180.66
2023-07-03T04:11:53.988Z,181.93
2023-07-03T04:12:54.058Z,180.75
2023-07-03T04:13:54.130Z,179.46
2023-07-03T04:14:54.128Z,181.01
2023-07-03T04:15:55.083Z,179.22
2023-07-03T04:16:54.481Z,181.45
2023-07-03T04:17:54.305Z,177.11
2023-07-03T04:18:54.336Z,180.46
2023-07-03T04:19:54.376Z,181.05
2023-07-03T04:20:54.460Z,181.67
2023-07-03T04:21:54.863Z,181.33
2023-07-03T04:22:54.488Z,177.76
2023-07-03T04:23:54.573Z,178.62
2023-07-03T04:24:54.665Z,178.23
2023-07-03T04:25:54.708Z,175.88
2023-07-03T04:26:54.761Z,177.51
2023-07-03T04:27:54.772Z,180.22
2023-07-03T04:28:54.816Z,178.32
2023-07-03T04:29:54.877Z,176.79
2023-07-03T04:30:54.935Z,174.23
2023-07-03T04:31:55.035Z,175.25
2023-07-03T04:32:55.154Z,174.20
2023-07-03T04:33:55.078Z,174.62
2023-07-03T04:34:55.153Z,175.72
2023-07-03T04:35:55.234Z,175.04
2023-07-03T04:36:55.256Z,172.63
2023-07-03T04:37:55.316Z,175.98
2023-07-03T04:38:55.370Z,177.18
2023-07-03T04:39:55.398Z,176.61
2023-07-03T04:40:55.465Z,176.47
2023-07-03T04:41:55.484Z,176.17
2023-07-03T04:42:55.527Z,176.81
2023-07-03T04:43:55.600Z,176.14
2023-07-03T04:44:55.647Z,178.43
2023-07-03T04:45:56.040Z,201.24
2023-07-03T04:46:55.777Z,183.18
2023-07-03T04:47:55.804Z,181.72
2023-07-03T04:48:55.886Z,186.07
2023-07-03T04:49:55.898Z,192.88
2023-07-03T04:50:56.020Z,188.08
2023-07-03T04:51:56.372Z,194.73
2023-07-03T04:52:59.010Z,196.22
2023-07-03T04:53:56.068Z,194.37
2023-07-03T04:54:56.052Z,196.25
2023-07-03T04:55:56.074Z,193.69
2023-07-03T04:56:56.049Z,192.56
2023-07-03T04:57:56.053Z,193.12
2023-07-03T04:58:56.036Z,189.85
2023-07-03T04:59:56.040Z,216.41
2023-07-03T05:00:56.071Z,249.72
2023-07-03T05:01:56.104Z,245.23
2023-07-03T05:02:56.031Z,229.25
2023-07-03T05:03:56.067Z,243.16
2023-07-03T05:04:56.038Z,237.21
2023-07-03T05:05:56.009Z,250.91
2023-07-03T05:06:55.978Z,249.80
2023-07-03T05:07:58.776Z,248.67
2023-07-03T05:08:55.946Z,248.71
2023-07-03T05:09:55.935Z,245.41
2023-07-03T05:10:55.943Z,243.35
2023-07-03T05:11:56.419Z,241.50
2023-07-03T05:12:55.946Z,236.73
2023-07-03T05:13:55.938Z,237.56
2023-07-03T05:14:55.929Z,234.62
2023-07-03T05:15:55.939Z,232.67
2023-07-03T05:16:56.401Z,230.70
2023-07-03T05:17:56.004Z,229.90
2023-07-03T05:18:55.922Z,226.21
2023-07-03T05:19:55.872Z,228.89
2023-07-03T05:20:55.941Z,223.46
2023-07-03T05:21:56.393Z,222.99
2023-07-03T05:22:55.887Z,219.66
2023-07-03T05:23:55.852Z,217.39
2023-07-03T05:24:55.858Z,217.76
2023-07-03T05:25:55.903Z,214.29
2023-07-03T05:26:55.925Z,214.28
2023-07-03T05:27:55.838Z,213.63
2023-07-03T05:28:55.821Z,207.17
2023-07-03T05:29:55.837Z,208.83
2023-07-03T05:30:55.862Z,205.63
2023-07-03T05:31:55.854Z,200.84
2023-07-03T05:32:55.896Z,200.73
2023-07-03T05:33:55.800Z,201.13
2023-07-03T05:34:55.815Z,196.69
2023-07-03T05:35:55.957Z,193.79
2023-07-03T05:36:55.778Z,196.03
2023-07-03T05:37:55.798Z,194.00
2023-07-03T05:38:55.731Z,192.75
2023-07-03T05:39:55.736Z,191.32
2023-07-03T05:40:55.740Z,189.66
2023-07-03T05:41:55.766Z,190.75
2023-07-03T05:42:55.734Z,186.28
2023-07-03T05:43:55.732Z,185.31
2023-07-03T05:44:55.736Z,186.82
2023-07-03T05:45:55.728Z,186.77
2023-07-03T05:46:55.795Z,184.72
2023-07-03T05:47:55.726Z,185.10
2023-07-03T05:48:55.680Z,180.32
2023-07-03T05:49:55.779Z,184.92
2023-07-03T05:50:55.775Z,181.65
2023-07-03T05:51:55.906Z,178.85
2023-07-03T05:52:55.880Z,179.77
2023-07-03T05:53:55.981Z,185.71
2023-07-03T05:54:56.007Z,185.04
2023-07-03T05:55:56.063Z,182.61
2023-07-03T05:56:56.175Z,184.93
2023-07-03T05:57:56.165Z,185.62
2023-07-03T05:58:56.286Z,183.71
2023-07-03T05:59:56.329Z,186.11
2023-07-03T06:00:56.400Z,185.39
2023-07-03T06:01:56.472Z,185.33
2023-07-03T06:02:56.490Z,185.08
2023-07-03T06:03:56.542Z,185.64
2023-07-03T06:04:56.645Z,181.59
2023-07-03T06:05:56.595Z,183.03
2023-07-03T06:06:56.692Z,181.14
2023-07-03T06:07:56.718Z,182.58
2023-07-03T06:08:56.775Z,181.43
2023-07-03T06:09:56.820Z,182.47
2023-07-03T06:10:56.856Z,179.36
2023-07-03T06:11:56.954Z,178.79
2023-07-03T06:12:56.981Z,177.43
2023-07-03T06:13:57.050Z,176.85
2023-07-03T06:14:57.154Z,177.51
2023-07-03T06:15:57.165Z,175.69
2023-07-03T06:16:57.219Z,173.79
2023-07-03T06:17:57.287Z,174.63
2023-07-03T06:18:57.290Z,173.89
2023-07-03T06:19:57.367Z,169.47
2023-07-03T06:20:57.428Z,171.59
2023-07-03T06:21:57.518Z,171.12
2023-07-03T06:22:57.558Z,167.08
2023-07-03T06:23:57.626Z,170.02
2023-07-03T06:24:57.631Z,170.18
2023-07-03T06:25:57.730Z,171.97
2023-07-03T06:26:57.706Z,164.90
2023-07-03T06:27:57.781Z,164.85
2023-07-03T06:28:57.818Z,168.32
2023-07-03T06:29:57.858Z,162.86
2023-07-03T06:30:57.969Z,162.26
2023-07-03T06:31:58.011Z,168.14
2023-07-03T06:32:58.091Z,165.57
2023-07-03T06:33:58.093Z,163.96
2023-07-03T06:34:58.144Z,163.49
2023-07-03T06:35:58.135Z,165.03
2023-07-03T06:36:58.434Z,165.74
2023-07-03T06:37:58.213Z,163.82
2023-07-03T06:38:58.270Z,164.57
2023-07-03T06:39:58.333Z,160.78
2023-07-03T06:40:58.378Z,162.03
2023-07-03T06:41:58.893Z,157.63
2023-07-03T06:42:58.582Z,156.68
2023-07-03T06:43:58.509Z,154.07
2023-07-03T06:44:58.530Z,148.31
2023-07-03T06:45:58.961Z,150.03
2023-07-03T06:46:58.601Z,149.82
2023-07-03T06:47:58.638Z,146.91
2023-07-03T06:48:58.569Z,143.57
2023-07-03T06:49:58.655Z,156.78
2023-07-03T06:50:58.680Z,177.42
2023-07-03T06:51:58.657Z,180.17
2023-07-03T06:52:58.698Z,189.73
2023-07-03T06:53:58.717Z,206.57
2023-07-03T06:54:58.793Z,206.28
2023-07-03T06:55:59.466Z,216.64
2023-07-03T06:56:58.752Z,202.40
2023-07-03T06:57:58.770Z,196.05
2023-07-03T06:58:58.891Z,204.24
2023-07-03T06:59:58.813Z,223.15
2023-07-03T07:00:58.892Z,239.85
2023-07-03T07:01:58.987Z,238.14
2023-07-03T07:02:58.975Z,250.00
2023-07-03T07:03:59.073Z,250.00
2023-07-03T07:05:01.653Z,249.40
2023-07-03T07:05:59.503Z,250.00
2023-07-03T07:06:59.077Z,248.88
2023-07-03T07:07:59.056Z,250.00
2023-07-03T07:08:59.066Z,246.00
2023-07-03T07:09:59.025Z,246.56
2023-07-03T07:10:59.039Z,247.53
2023-07-03T07:11:59.039Z,248.83
2023-07-03T07:12:59.019Z,249.23
2023-07-03T07:13:59.035Z,249.60
2023-07-03T07:15:00.132Z,247.71
2023-07-03T07:15:59.000Z,239.33
2023-07-03T07:16:59.123Z,242.91
2023-07-03T07:17:59.000Z,244.19
2023-07-03T07:18:58.966Z,214.73
2023-07-03T07:19:59.133Z,217.52
2023-07-03T07:20:58.968Z,230.70
2023-07-03T07:21:58.979Z,216.24
2023-07-03T07:22:58.950Z,226.55
2023-07-03T07:23:58.960Z,232.60
2023-07-03T07:24:58.930Z,239.27
2023-07-03T07:25:58.961Z,232.07
2023-07-03T07:26:58.926Z,239.42
2023-07-03T07:27:58.915Z,238.17
2023-07-03T07:28:58.895Z,243.49
2023-07-03T07:29:58.905Z,250.00
2023-07-03T07:30:59.050Z,246.96
2023-07-03T07:31:58.963Z,250.00
2023-07-03T07:32:59.058Z,248.91
2023-07-03T07:33:59.082Z,248.76
2023-07-03T07:34:59.126Z,245.76
2023-07-03T07:35:59.132Z,248.78
2023-07-03T07:36:59.258Z,249.28
2023-07-03T07:37:59.307Z,248.78
2023-07-03T07:38:59.326Z,249.43
2023-07-03T07:39:59.418Z,249.11
2023-07-03T07:40:59.470Z,208.34
2023-07-03T07:41:59.543Z,207.55
2023-07-03T07:42:59.549Z,209.91
2023-07-03T07:43:59.604Z,213.71
2023-07-03T07:44:59.656Z,224.88
2023-07-03T07:45:59.742Z,233.16
2023-07-03T07:46:59.881Z,239.61
2023-07-03T07:47:59.891Z,224.33
2023-07-03T07:48:59.905Z,216.46
2023-07-03T07:49:59.947Z,219.83
2023-07-03T07:50:59.986Z,217.05
2023-07-03T07:52:00.417Z,204.34
2023-07-03T07:53:00.088Z,220.02
2023-07-03T07:54:00.157Z,222.02
2023-07-03T07:55:00.262Z,228.15
2023-07-03T07:56:00.256Z,230.34
2023-07-03T07:57:00.941Z,232.29
2023-07-03T07:58:00.359Z,243.56
2023-07-03T07:59:00.480Z,239.09
2023-07-03T08:00:00.497Z,249.99
2023-07-03T08:01:00.555Z,250.00
2023-07-03T08:02:00.616Z,250.00
2023-07-03T08:03:00.770Z,248.39
2023-07-03T08:04:00.691Z,239.62
2023-07-03T08:05:00.914Z,250.00
2023-07-03T08:06:00.791Z,246.14
2023-07-03T08:07:00.848Z,249.67
2023-07-03T08:08:00.886Z,245.71
2023-07-03T08:09:01.014Z,244.66
2023-07-03T08:10:01.069Z,248.49
2023-07-03T08:11:01.052Z,248.98
2023-07-03T08:12:01.140Z,250.00
2023-07-03T08:13:01.101Z,249.91
2023-07-03T08:14:01.080Z,249.71
2023-07-03T08:15:01.090Z,250.00
2023-07-03T08:16:01.189Z,249.46
2023-07-03T08:17:01.209Z,248.21
2023-07-03T08:18:01.327Z,250.00
2023-07-03T08:19:01.284Z,249.54
2023-07-03T08:20:01.290Z,250.01
2023-07-03T08:21:01.294Z,248.05
2023-07-03T08:22:01.335Z,245.69
2023-07-03T08:23:01.300Z,245.84
2023-07-03T08:24:01.378Z,243.76
2023-07-03T08:25:01.367Z,244.03
2023-07-03T08:26:01.419Z,241.89
2023-07-03T08:27:01.410Z,243.03
2023-07-03T08:28:01.395Z,247.01
2023-07-03T08:29:01.490Z,244.75
2023-07-03T08:30:01.428Z,243.49
2023-07-03T08:31:01.436Z,245.09
2023-07-03T08:32:01.564Z,245.28
2023-07-03T08:33:01.538Z,241.85
2023-07-03T08:34:01.554Z,240.36
2023-07-03T08:38:01.465Z,245.13
2023-07-03T08:39:01.469Z,245.35
2023-07-03T08:40:01.422Z,178.87
2023-07-03T08:41:01.460Z,180.06
2023-07-03T08:42:01.451Z,143.44
2023-07-03T08:43:01.439Z,115.49
2023-07-03T08:44:01.427Z,93.00
2023-07-03T08:45:01.403Z,84.02
2023-07-03T08:46:01.448Z,94.51
2023-07-03T08:47:10.711Z,82.73
2023-07-03T08:48:02.409Z,83.33
2023-07-03T08:49:01.400Z,63.29
2023-07-03T08:50:01.514Z,63.48
2023-07-03T08:51:01.467Z,38.61
2023-07-03T08:52:01.371Z,37.04
2023-07-03T08:53:01.358Z,23.60
2023-07-03T08:54:01.358Z,26.27
2023-07-03T08:55:01.428Z,46.11
2023-07-03T08:56:01.321Z,63.64
2023-07-03T08:57:01.453Z,90.29
2023-07-03T08:58:01.293Z,120.07
2023-07-03T08:59:01.293Z,121.09
2023-07-03T09:00:01.277Z,130.57
2023-07-03T09:01:01.333Z,124.86
2023-07-03T09:02:01.326Z,110.73
2023-07-03T09:03:01.391Z,89.27
2023-07-03T09:04:01.388Z,70.06
2023-07-03T09:05:01.424Z,65.00
2023-07-03T09:06:01.543Z,65.14
2023-07-03T09:07:01.546Z,44.58
2023-07-03T09:08:01.518Z,45.96
2023-07-03T09:09:01.509Z,50.75
2023-07-03T09:10:01.655Z,59.51
2023-07-03T09:11:01.617Z,37.33
2023-07-03T09:12:01.602Z,39.10
2023-07-03T09:13:01.617Z,30.31
2023-07-03T09:14:01.672Z,25.00
2023-07-03T09:15:03.155Z,25.00
2023-07-03T09:16:01.700Z,22.62
2023-07-03T09:17:01.769Z,25.28
2023-07-03T09:18:02.520Z,24.45
2023-07-03T09:19:01.802Z,31.60
2023-07-03T09:20:01.665Z,29.11
2023-07-03T09:21:01.769Z,35.70
2023-07-03T09:22:01.710Z,36.22
2023-07-03T09:23:01.821Z,54.68
2023-07-03T09:24:01.724Z,50.92
2023-07-03T09:25:01.654Z,71.87
2023-07-03T09:26:04.946Z,95.43
2023-07-03T09:27:01.737Z,95.83
2023-07-03T09:28:01.600Z,86.38
2023-07-03T09:29:01.617Z,77.37
2023-07-03T09:30:01.598Z,67.00
2023-07-03T09:31:03.641Z,45.99
2023-07-03T09:32:48.273Z,25.00
2023-07-03T09:33:48.333Z,25.00
2023-07-03T09:34:48.381Z,25.00
2023-07-03T09:35:48.354Z,25.00
2023-07-03T09:36:48.396Z,25.00
2023-07-03T09:37:48.414Z,17.90
2023-07-03T09:38:49.469Z,25.90
2023-07-03T09:39:48.407Z,42.91
2023-07-03T09:40:48.372Z,63.91
2023-07-03T09:41:48.404Z,67.01
2023-07-03T09:42:49.998Z,74.98
2023-07-03T09:43:48.554Z,95.18
2023-07-03T09:44:48.351Z,97.43
2023-07-03T09:45:48.608Z,98.66
2023-07-03T09:46:48.447Z,123.83
2023-07-03T09:47:48.395Z,128.75
2023-07-03T09:48:48.322Z,137.44
2023-07-03T09:49:48.364Z,135.89
2023-07-03T09:51:05.488Z,148.72
2023-07-03T09:51:49.360Z,148.79
2023-07-03T09:52:59.382Z,150.27
2023-07-03T09:53:49.306Z,149.56
2023-07-03T09:54:48.668Z,149.30
2023-07-03T09:55:48.368Z,135.45
2023-07-03T09:56:48.301Z,92.78
2023-07-03T09:57:48.239Z,90.10
2023-07-03T09:58:48.256Z,116.49
2023-07-03T09:59:48.257Z,113.09
2023-07-03T10:00:49.197Z,118.87
2023-07-03T10:03:48.327Z,179.03
2023-07-03T10:06:48.258Z,180.00
2023-07-03T10:07:48.283Z,183.08
2023-07-03T10:08:48.533Z,184.59
2023-07-03T10:11:48.249Z,180.22
2023-07-03T10:12:48.179Z,186.62
2023-07-03T10:13:48.212Z,198.20
2023-07-03T10:14:48.127Z,216.05
2023-07-03T10:15:48.313Z,254.57
2023-07-03T10:16:48.211Z,250.38
2023-07-03T10:17:48.206Z,245.81
2023-07-03T10:18:48.120Z,183.53
2023-07-03T10:19:48.123Z,172.63
2023-07-03T10:20:48.113Z,172.55
2023-07-03T10:21:48.118Z,192.38
2023-07-03T10:22:48.098Z,210.85
2023-07-03T10:23:48.122Z,212.43
2023-07-03T10:24:48.874Z,213.06
2023-07-03T10:25:48.138Z,225.64
2023-07-03T10:26:48.319Z,250.08
2023-07-03T10:27:48.056Z,254.20
2023-07-03T10:28:48.076Z,250.15
2023-07-03T10:29:48.084Z,249.54
2023-07-03T10:30:48.076Z,250.00
2023-07-03T10:31:48.059Z,249.62
2023-07-03T10:32:48.060Z,249.99
2023-07-03T10:33:48.009Z,250.00
2023-07-03T10:34:48.020Z,249.86
2023-07-03T10:35:48.085Z,248.74
2023-07-03T10:36:48.005Z,250.00
2023-07-03T10:37:47.972Z,249.69
2023-07-03T10:38:47.991Z,247.07
2023-07-03T10:39:47.998Z,249.97
2023-07-03T10:40:48.038Z,246.79
2023-07-03T10:41:48.004Z,240.70
2023-07-03T10:42:48.070Z,238.03
2023-07-03T10:43:47.954Z,241.60
2023-07-03T10:44:47.983Z,237.58
2023-07-03T10:45:48.053Z,228.71
2023-07-03T10:46:48.077Z,220.27
2023-07-03T10:47:47.996Z,211.70
2023-07-03T10:48:47.908Z,211.86
2023-07-03T10:49:47.904Z,214.95
2023-07-03T10:50:48.000Z,219.60
2023-07-03T10:51:47.985Z,216.34
2023-07-03T10:52:47.894Z,209.58
2023-07-03T10:53:47.896Z,204.72
2023-07-03T10:54:47.916Z,200.54
2023-07-03T10:55:47.933Z,195.56
2023-07-03T10:56:47.890Z,192.20
2023-07-03T10:57:47.850Z,188.95
2023-07-03T10:58:47.999Z,181.07
2023-07-03T10:59:47.874Z,170.66
2023-07-03T11:00:47.859Z,167.94
2023-07-03T11:01:47.898Z,164.87
2023-07-03T11:02:47.883Z,163.52
2023-07-03T11:03:53.057Z,154.68
2023-07-03T11:04:48.895Z,154.70
2023-07-03T11:05:47.814Z,147.75
2023-07-03T11:06:47.834Z,137.32
2023-07-03T11:07:47.803Z,135.26
2023-07-03T11:08:47.804Z,131.68
2023-07-03T11:09:47.821Z,125.15
2023-07-03T11:10:47.822Z,121.48
2023-07-03T11:11:47.777Z,116.67
2023-07-03T11:12:47.785Z,115.18
2023-07-03T11:13:47.800Z,110.88
2023-07-03T11:14:47.892Z,109.04
2023-07-03T11:15:47.928Z,109.79
2023-07-03T11:16:48.062Z,106.89
2023-07-03T11:22:47.831Z,100.91
2023-07-03T11:23:47.868Z,98.65
2023-07-03T11:24:47.864Z,94.93
2023-07-03T11:28:47.846Z,94.25
2023-07-03T11:29:47.779Z,92.59
2023-07-03T11:30:47.816Z,91.45
2023-07-03T11:31:47.970Z,90.20
2023-07-03T11:32:47.783Z,89.16
2023-07-03T11:36:56.752Z,86.62
2023-07-03T11:39:47.721Z,85.65
2023-07-03T11:40:47.865Z,87.14
2023-07-03T11:43:47.701Z,86.64
2023-07-03T11:44:47.700Z,87.01
2023-07-03T11:45:47.734Z,86.49
2023-07-03T11:46:47.703Z,81.60
2023-07-03T11:47:47.701Z,79.71
2023-07-03T11:48:47.655Z,79.48
2023-07-03T11:49:47.685Z,73.07
2023-07-03T11:50:47.645Z,72.96
2023-07-03T11:51:47.628Z,72.64
2023-07-03T11:52:47.643Z,72.65
2023-07-03T11:53:47.652Z,71.74
2023-07-03T11:54:47.654Z,70.70
2023-07-03T11:55:47.775Z,67.13
2023-07-03T11:56:47.618Z,69.79
2023-07-03T11:57:50.285Z,72.74
2023-07-03T11:58:48.588Z,72.84
2023-07-03T11:59:47.566Z,73.17
2023-07-03T12:00:47.609Z,73.19
2023-07-03T12:01:47.574Z,72.51
2023-07-03T12:02:47.608Z,72.92
2023-07-03T12:03:47.603Z,73.38
2023-07-03T12:04:49.463Z,72.47
2023-07-03T12:05:47.761Z,72.14
2023-07-03T12:06:47.711Z,69.12
2023-07-03T12:07:47.772Z,65.40
2023-07-03T12:08:47.819Z,65.05
2023-07-03T12:09:47.896Z,64.84
2023-07-03T12:10:47.944Z,62.57
2023-07-03T12:11:48.003Z,64.10
2023-07-03T12:12:48.085Z,64.14
2023-07-03T12:13:48.131Z,60.17
2023-07-03T12:14:48.173Z,57.98
2023-07-03T12:15:48.412Z,57.74
2023-07-03T12:16:48.364Z,59.58
2023-07-03T12:17:48.394Z,58.05
2023-07-03T12:18:48.410Z,57.94
2023-07-03T12:19:48.469Z,56.14
2023-07-03T12:20:48.520Z,58.06
2023-07-03T12:21:48.598Z,55.39
2023-07-03T12:22:48.693Z,53.57
2023-07-03T12:23:49.565Z,57.15
2023-07-03T12:24:48.770Z,57.46
2023-07-03T12:25:49.033Z,55.62
2023-07-03T12:26:48.867Z,50.58
2023-07-03T12:27:48.990Z,51.57
2023-07-03T12:28:49.028Z,51.81
2023-07-03T12:29:49.074Z,51.53
2023-07-03T12:30:49.249Z,49.28
2023-07-03T12:31:49.212Z,50.55
2023-07-03T12:32:49.401Z,51.30
2023-07-03T12:33:49.318Z,49.57
2023-07-03T12:34:49.369Z,47.78
2023-07-03T12:35:49.674Z,46.72
2023-07-03T12:36:54.088Z,45.88
2023-07-03T12:37:50.443Z,45.92
2023-07-03T12:38:49.459Z,44.80
2023-07-03T12:39:49.421Z,43.35
2023-07-03T12:40:49.416Z,43.28
2023-07-03T12:41:49.433Z,42.92
2023-07-03T12:42:49.429Z,40.57
2023-07-03T12:43:56.591Z,39.60
2023-07-03T12:44:50.438Z,39.69
2023-07-03T12:45:49.552Z,39.38
2023-07-03T12:46:49.422Z,37.31
2023-07-03T12:47:49.405Z,35.53
2023-07-03T12:48:49.360Z,35.06
2023-07-03T12:49:49.368Z,30.03
2023-07-03T12:50:49.333Z,31.79
2023-07-03T12:51:49.672Z,31.04
2023-07-03T12:52:49.351Z,28.11
2023-07-03T12:53:49.322Z,28.32
2023-07-03T12:54:50.120Z,25.87
2023-07-03T12:55:49.495Z,25.82
2023-07-03T12:56:49.405Z,26.41
2023-07-03T12:57:49.483Z,29.61
2023-07-03T12:58:49.498Z,27.56